Time;durP1;ratioP1;P1;durP2;ratioP2;P2;SDS_P1;SDS_P2;PMS_P1;PMS_P2;Temp;Humidity;BMP_temperature;BMP_pressure;BME280_temperature;BME280_humidity;BME280_pressure;Samples;Min_cycle;Max_cycle;Signal;HPM_P1;HPM_P2
2022/06/29 00:00:41;;;;;;;10.90;9.80;;;;;;;19.77;82.76;100507.35;130840;1268;107408;-78
2022/06/29 00:03:51;;;;;;;11.90;10.70;;;;;;;19.80;82.94;100505.48;130933;1268;107772;-79
2022/06/29 00:06:56;;;;;;;12.10;10.80;;;;;;;19.77;83.23;100499.75;130814;1268;107711;-78
2022/06/29 00:10:02;;;;;;;10.90;9.80;;;;;;;19.71;83.52;100497.59;130774;1267;107728;-78
2022/06/29 00:13:07;;;;;;;12.60;10.00;;;;;;;19.66;83.53;100491.33;130509;1268;108697;-76
2022/06/29 00:16:13;;;;;;;11.30;10.10;;;;;;;19.67;83.77;100486.17;130314;1268;108112;-76
2022/06/29 00:19:18;;;;;;;12.10;10.90;;;;;;;19.70;83.43;100485.02;130314;1267;109418;-76
2022/06/29 00:22:23;;;;;;;11.30;10.20;;;;;;;19.70;83.85;100484.10;130298;1268;108713;-76
2022/06/29 00:25:29;;;;;;;11.00;9.90;;;;;;;19.68;84.51;100476.52;130243;1267;108704;-76
2022/06/29 00:28:34;;;;;;;10.80;9.70;;;;;;;19.62;84.33;100467.26;130276;1268;108869;-76
2022/06/29 00:31:39;;;;;;;12.30;11.00;;;;;;;19.60;84.08;100465.60;130267;1268;108809;-78
2022/06/29 00:34:45;;;;;;;12.60;11.30;;;;;;;19.63;83.93;100459.06;130275;1268;108895;-77
2022/06/29 00:37:50;;;;;;;14.10;10.70;;;;;;;19.65;84.38;100455.86;130272;1268;108773;-77
2022/06/29 00:40:55;;;;;;;12.00;10.70;;;;;;;19.65;84.02;100453.23;130238;1268;108862;-78
2022/06/29 00:44:00;;;;;;;11.40;10.30;;;;;;;19.68;84.20;100446.90;130309;1268;108776;-77
2022/06/29 00:47:07;;;;;;;15.60;11.90;;;;;;;19.73;83.72;100448.36;130294;1268;108658;-78
2022/06/29 00:50:13;;;;;;;13.00;11.50;;;;;;;19.77;84.12;100451.55;130281;1268;108778;-75
2022/06/29 00:53:22;;;;;;;12.30;10.20;;;;;;;19.73;84.14;100451.98;130289;1268;108679;-75
2022/06/29 00:56:28;;;;;;;12.70;11.40;;;;;;;19.72;84.17;100442.15;130288;1268;109523;-76
2022/06/29 00:59:38;;;;;;;13.50;12.20;;;;;;;19.73;84.00;100446.14;130277;1268;108712;-77
2022/06/29 01:02:43;;;;;;;16.30;11.40;;;;;;;19.72;84.31;100439.80;130238;1268;108711;-77
2022/06/29 01:05:49;;;;;;;13.20;10.80;;;;;;;19.74;84.19;100435.28;130214;1268;109006;-75
2022/06/29 01:08:54;;;;;;;11.70;10.50;;;;;;;19.86;84.08;100435.55;130251;1268;108671;-74
2022/06/29 01:12:00;;;;;;;13.30;11.90;;;;;;;20.00;83.90;100427.88;130284;1267;108644;-74
2022/06/29 01:15:07;;;;;;;14.10;12.60;;;;;;;20.10;83.80;100421.59;130312;1268;108800;-79
2022/06/29 01:18:12;;;;;;;15.70;12.90;;;;;;;20.14;83.68;100421.13;130301;1267;108597;-78
2022/06/29 01:21:21;;;;;;;14.30;11.60;;;;;;;20.16;83.70;100418.59;130187;1268;108719;-78
2022/06/29 01:24:27;;;;;;;12.50;11.20;;;;;;;20.18;84.16;100409.66;130189;1268;107710;-76
2022/06/29 01:27:32;;;;;;;13.90;11.60;;;;;;;20.20;83.84;100409.66;130271;1268;108691;-77
2022/06/29 01:30:38;;;;;;;13.90;12.30;;;;;;;20.25;83.70;100412.14;130260;1267;108791;-74
2022/06/29 01:33:43;;;;;;;17.50;12.00;;;;;;;20.27;83.85;100412.17;130210;1268;108427;-74
2022/06/29 01:36:48;;;;;;;13.60;11.90;;;;;;;20.28;84.23;100417.22;130262;1268;108890;-74
2022/06/29 01:39:54;;;;;;;14.90;12.40;;;;;;;20.24;84.06;100420.73;130196;1268;109075;-75
2022/06/29 01:42:59;;;;;;;14.90;13.30;;;;;;;20.21;84.90;100426.84;130266;1268;109014;-74
2022/06/29 01:46:04;;;;;;;16.40;12.80;;;;;;;20.16;85.54;100427.70;130203;1268;108808;-73
2022/06/29 01:49:09;;;;;;;13.60;12.10;;;;;;;20.10;85.41;100427.69;130239;1268;108801;-74
2022/06/29 01:52:14;;;;;;;14.30;12.40;;;;;;;20.08;84.85;100429.89;130247;1268;108718;-78
2022/06/29 01:55:20;;;;;;;14.20;12.00;;;;;;;20.11;84.76;100428.48;130212;1268;107733;-78
2022/06/29 01:58:25;;;;;;;14.10;11.90;;;;;;;20.16;84.46;100428.92;130257;1268;108827;-80
2022/06/29 02:01:30;;;;;;;12.20;10.90;;;;;;;20.16;84.82;100425.80;130160;1268;108826;-78
2022/06/29 02:04:36;;;;;;;13.00;11.70;;;;;;;20.17;84.56;100419.59;130210;1267;108796;-71
2022/06/29 02:07:41;;;;;;;15.90;12.10;;;;;;;20.20;84.60;100421.38;130226;1268;108604;-71
2022/06/29 02:10:46;;;;;;;15.40;12.40;;;;;;;20.22;84.50;100423.33;130100;1268;108767;-72
2022/06/29 02:13:52;;;;;;;16.00;13.80;;;;;;;20.21;84.53;100418.65;130249;1268;108839;-71
2022/06/29 02:16:58;;;;;;;13.60;12.20;;;;;;;20.19;84.81;100423.88;130229;1267;108658;-72
2022/06/29 02:20:03;;;;;;;13.50;11.60;;;;;;;20.17;84.50;100422.95;130184;1268;108762;-71
2022/06/29 02:23:08;;;;;;;14.10;12.40;;;;;;;20.26;84.45;100418.52;130243;1268;108837;-72
2022/06/29 02:26:14;;;;;;;15.40;12.90;;;;;;;20.27;84.56;100412.17;130237;1268;109152;-71
2022/06/29 02:29:19;;;;;;;14.50;12.70;;;;;;;20.25;84.49;100416.52;130255;1268;108937;-71
2022/06/29 02:35:47;;;;;;;12.70;11.20;;;;;;;20.25;84.49;100413.82;130248;1268;108751;-72
2022/06/29 02:38:52;;;;;;;14.50;12.00;;;;;;;20.25;84.62;100415.08;130212;1268;108831;-72
2022/06/29 02:41:57;;;;;;;14.70;12.80;;;;;;;20.26;84.58;100414.77;130204;1268;108770;-72
2022/06/29 02:45:03;;;;;;;12.40;11.00;;;;;;;20.27;84.60;100415.09;130196;1268;108856;-72
2022/06/29 02:48:08;;;;;;;13.50;12.00;;;;;;;20.30;84.73;100418.30;130269;1268;108949;-75
2022/06/29 02:51:14;;;;;;;13.00;11.60;;;;;;;20.32;84.76;100418.21;130253;1270;108714;-77
2022/06/29 02:54:19;;;;;;;14.30;12.30;;;;;;;20.36;84.71;100424.50;130270;1268;108814;-78
2022/06/29 02:57:24;;;;;;;15.60;12.70;;;;;;;20.42;84.46;100426.27;130252;1269;108763;-80
2022/06/29 03:00:30;;;;;;;14.40;12.30;;;;;;;20.41;84.56;100422.19;130300;1268;109032;-80
2022/06/29 03:03:36;;;;;;;12.40;11.20;;;;;;;20.38;84.39;100418.56;130358;1268;108160;-79
2022/06/29 03:06:41;;;;;;;12.70;11.40;;;;;;;20.38;84.77;100416.44;130314;1268;108533;-79
2022/06/29 03:09:47;;;;;;;13.50;12.10;;;;;;;20.40;84.69;100405.52;130381;1268;107443;-80
2022/06/29 03:12:52;;;;;;;13.80;12.00;;;;;;;20.44;84.83;100407.63;130233;1268;107655;-79
2022/06/29 03:15:58;;;;;;;12.30;10.80;;;;;;;20.39;84.75;100400.42;130202;1269;109136;-79
2022/06/29 03:19:03;;;;;;;12.30;11.00;;;;;;;20.37;84.80;100388.96;130202;1268;108974;-80
2022/06/29 03:22:08;;;;;;;12.80;11.50;;;;;;;20.38;84.84;100390.59;130202;1269;107460;-79
2022/06/29 03:25:13;;;;;;;13.80;12.40;;;;;;;20.39;85.02;100390.00;130238;1268;108858;-79
2022/06/29 03:28:19;;;;;;;13.30;10.80;;;;;;;20.37;85.08;100382.58;130176;1267;108766;-79
2022/06/29 03:31:24;;;;;;;13.50;10.90;;;;;;;20.41;85.01;100375.94;130201;1268;108937;-79
2022/06/29 03:34:30;;;;;;;11.90;10.70;;;;;;;20.48;84.81;100376.88;130273;1268;109125;-79
2022/06/29 03:37:35;;;;;;;14.40;11.80;;;;;;;20.54;84.75;100371.66;130164;1268;107689;-79
2022/06/29 03:40:40;;;;;;;16.20;12.00;;;;;;;20.61;84.79;100366.19;130240;1268;109184;-78
2022/06/29 03:43:45;;;;;;;13.00;11.60;;;;;;;20.62;84.93;100357.86;130190;1267;108763;-78
2022/06/29 03:46:50;;;;;;;14.00;11.10;;;;;;;20.65;84.87;100350.95;130167;1268;108687;-79
2022/06/29 03:49:56;;;;;;;17.40;12.90;;;;;;;20.73;84.99;100347.65;130195;1268;108626;-80
2022/06/29 03:53:01;;;;;;;13.20;11.80;;;;;;;20.74;84.75;100351.81;130193;1268;108805;-79
2022/06/29 03:56:07;;;;;;;13.90;12.40;;;;;;;20.77;84.82;100351.77;130158;1268;108893;-78
2022/06/29 03:59:12;;;;;;;12.50;11.00;;;;;;;20.77;84.79;100349.96;130256;1267;108781;-79
2022/06/29 04:02:17;;;;;;;16.70;12.70;;;;;;;20.85;84.84;100351.10;130217;1268;108698;-80
2022/06/29 04:05:22;;;;;;;16.20;13.80;;;;;;;20.90;84.81;100353.73;130188;1268;108954;-79
2022/06/29 04:08:28;;;;;;;16.80;13.80;;;;;;;20.94;84.58;100348.98;130208;1267;107652;-78
2022/06/29 04:11:53;;;;;;;14.50;12.10;;;;;;;20.95;84.62;100349.99;130189;1268;109412;-78
2022/06/29 04:14:59;;;;;;;15.60;11.60;;;;;;;20.94;84.49;100361.14;130226;1268;107309;-79
2022/06/29 04:18:05;;;;;;;18.40;13.00;;;;;;;20.93;84.66;100353.46;130245;1267;108803;-80
2022/06/29 04:21:10;;;;;;;16.50;13.10;;;;;;;20.98;84.66;100348.89;130220;1268;108968;-79
2022/06/29 04:24:15;;;;;;;17.40;13.70;;;;;;;20.97;84.63;100342.45;130206;1268;108775;-75
2022/06/29 04:27:21;;;;;;;17.30;13.30;;;;;;;20.96;84.70;100338.80;130198;1268;108713;-76
2022/06/29 04:30:26;;;;;;;15.00;12.80;;;;;;;20.98;84.74;100331.64;130289;1268;107704;-79
2022/06/29 04:33:32;;;;;;;16.30;12.50;;;;;;;21.01;84.92;100327.23;130214;1268;109001;-75
2022/06/29 04:36:37;;;;;;;17.00;14.50;;;;;;;21.02;84.54;100332.53;130207;1268;108772;-76
2022/06/29 04:39:42;;;;;;;19.30;14.80;;;;;;;20.91;84.97;100332.27;130236;1268;108726;-73
2022/06/29 04:42:47;;;;;;;17.10;13.30;;;;;;;20.73;85.26;100334.85;130194;1268;108777;-72
2022/06/29 04:49:15;;;;;;;18.60;12.70;;;;;;;20.65;85.38;100341.45;130247;1270;108725;-74
2022/06/29 04:52:21;;;;;;;16.20;13.50;;;;;;;20.74;85.58;100344.48;130211;1268;108726;-74
2022/06/29 04:55:28;;;;;;;15.10;12.60;;;;;;;20.87;85.17;100348.73;130217;1267;108738;-75
2022/06/29 04:58:33;;;;;;;15.30;12.90;;;;;;;21.00;85.15;100353.45;130231;1267;108765;-80
2022/06/29 05:01:38;;;;;;;13.90;11.70;;;;;;;21.18;84.83;100356.41;130223;1268;108708;-76
2022/06/29 05:04:44;;;;;;;12.90;11.20;;;;;;;21.34;84.56;100355.52;130347;1267;108831;-76
2022/06/29 05:07:49;;;;;;;15.70;13.20;;;;;;;21.49;84.12;100357.64;130403;1267;108912;-77
2022/06/29 05:10:54;;;;;;;13.80;11.90;;;;;;;21.48;83.89;100363.42;130241;1268;108805;-76
2022/06/29 05:14:00;;;;;;;12.70;10.60;;;;;;;21.44;83.99;100366.18;130198;1268;108811;-77
2022/06/29 05:17:05;;;;;;;12.10;10.20;;;;;;;21.53;83.90;100371.17;130180;1268;108854;-75
2022/06/29 05:20:12;;;;;;;12.80;11.50;;;;;;;21.49;83.60;100381.08;130193;1268;108721;-77
2022/06/29 05:23:18;;;;;;;11.10;8.90;;;;;;;21.43;83.45;100377.18;130219;1268;109060;-77
2022/06/29 05:26:24;;;;;;;11.30;9.30;;;;;;;21.52;83.78;100381.05;130226;1268;107048;-77
2022/06/29 05:29:29;;;;;;;12.60;10.70;;;;;;;21.66;83.43;100382.52;130200;1268;107064;-76
2022/06/29 05:32:35;;;;;;;10.80;9.30;;;;;;;21.62;83.20;100384.94;130246;1268;108856;-76
2022/06/29 05:35:41;;;;;;;11.60;10.20;;;;;;;21.40;83.16;100390.09;130376;1268;108580;-77
2022/06/29 05:38:46;;;;;;;12.20;10.20;;;;;;;21.21;83.48;100391.83;130238;1268;108920;-77
2022/06/29 05:41:51;;;;;;;11.40;8.30;;;;;;;21.23;83.81;100389.40;130196;1268;108405;-77
2022/06/29 05:44:56;;;;;;;8.90;8.00;;;;;;;21.13;83.02;100391.30;130250;1268;108820;-77
2022/06/29 05:48:01;;;;;;;8.60;7.70;;;;;;;20.95;83.45;100392.58;130313;1268;108786;-76
2022/06/29 05:51:07;;;;;;;10.00;8.20;;;;;;;20.93;83.55;100396.57;130250;1268;107639;-76
2022/06/29 05:54:12;;;;;;;10.20;8.20;;;;;;;21.01;83.59;100395.27;130241;1268;109181;-77
2022/06/29 05:57:19;;;;;;;9.80;8.10;;;;;;;21.05;83.32;100391.89;130186;1268;108717;-76
2022/06/29 06:00:25;;;;;;;7.90;7.10;;;;;;;21.07;83.41;100386.33;130230;1268;108543;-76
2022/06/29 06:03:30;;;;;;;9.00;7.90;;;;;;;21.13;83.18;100384.84;130217;1268;108074;-76
2022/06/29 06:06:35;;;;;;;9.40;7.80;;;;;;;21.17;83.18;100389.65;130213;1268;108797;-76
2022/06/29 06:09:41;;;;;;;9.10;8.20;;;;;;;21.10;83.46;100387.58;130303;1268;108689;-77
2022/06/29 06:12:46;;;;;;;10.50;8.70;;;;;;;21.12;83.55;100384.39;130261;1268;108656;-76
2022/06/29 06:15:51;;;;;;;8.90;8.00;;;;;;;21.10;83.35;100387.23;130288;1269;107683;-76
2022/06/29 06:18:56;;;;;;;10.20;8.30;;;;;;;21.13;83.59;100389.17;130280;1268;109010;-76
2022/06/29 06:22:01;;;;;;;9.60;8.60;;;;;;;21.27;83.50;100388.40;130227;1268;108645;-76
2022/06/29 06:25:08;;;;;;;10.70;9.20;;;;;;;21.44;83.38;100389.25;130323;1267;106966;-76
2022/06/29 06:28:13;;;;;;;11.30;8.70;;;;;;;21.50;83.31;100390.75;130426;1267;109859;-77
2022/06/29 06:31:18;;;;;;;9.30;8.20;;;;;;;21.58;82.74;100391.11;130396;1267;108939;-76
2022/06/29 06:34:26;;;;;;;9.20;8.30;;;;;;;21.60;82.82;100390.63;130458;1267;108649;-76
2022/06/29 06:37:31;;;;;;;11.10;8.80;;;;;;;21.59;82.49;100391.98;130328;1267;108571;-77
2022/06/29 06:44:00;;;;;;;9.00;8.10;;;;;;;21.74;82.75;100392.10;130287;1267;108720;-77
2022/06/29 06:47:06;;;;;;;8.60;7.70;;;;;;;21.97;82.61;100385.48;130405;1267;108632;-76
2022/06/29 06:50:11;;;;;;;8.90;8.10;;;;;;;22.12;81.94;100388.65;130334;1267;108490;-76
2022/06/29 06:53:17;;;;;;;10.80;8.50;;;;;;;22.17;81.48;100390.48;130341;1267;108531;-76
2022/06/29 06:56:22;;;;;;;10.10;8.70;;;;;;;22.06;81.25;100386.42;130342;1267;108403;-76
2022/06/29 06:59:27;;;;;;;8.00;7.20;;;;;;;22.01;81.59;100387.23;130394;1267;107988;-77
2022/06/29 07:02:32;;;;;;;9.50;8.20;;;;;;;22.13;81.41;100389.77;130423;1266;108779;-77
2022/06/29 07:05:38;;;;;;;9.00;8.20;;;;;;;22.07;80.32;100383.06;130387;1267;108765;-77
2022/06/29 07:08:44;;;;;;;6.60;6.00;;;;;;;22.07;80.99;100390.26;130253;1267;108676;-77
2022/06/29 07:11:50;;;;;;;9.50;8.30;;;;;;;22.25;81.07;100386.52;130188;1268;108850;-77
2022/06/29 07:14:55;;;;;;;11.00;9.00;;;;;;;22.43;80.99;100393.19;130235;1268;108703;-77
2022/06/29 07:18:01;;;;;;;10.70;9.30;;;;;;;22.61;80.50;100390.42;130199;1268;108771;-77
2022/06/29 07:21:06;;;;;;;8.40;7.60;;;;;;;22.64;79.98;100384.04;130146;1270;108737;-77
2022/06/29 07:24:11;;;;;;;9.30;8.30;;;;;;;22.73;79.87;100381.49;130238;1268;108385;-77
2022/06/29 07:27:17;;;;;;;9.00;8.10;;;;;;;22.96;79.69;100377.28;130195;1268;108844;-77
2022/06/29 07:30:22;;;;;;;10.30;8.50;;;;;;;23.17;79.03;100377.83;130180;1270;108738;-77
2022/06/29 07:33:27;;;;;;;10.40;8.40;;;;;;;23.24;78.65;100376.33;130228;1268;108562;-77
2022/06/29 07:36:33;;;;;;;8.70;7.90;;;;;;;23.13;77.43;100377.51;130222;1268;108847;-77
2022/06/29 07:39:38;;;;;;;8.50;7.70;;;;;;;23.03;78.46;100372.42;130202;1268;108728;-77
2022/06/29 07:42:43;;;;;;;8.50;7.60;;;;;;;23.14;78.05;100371.13;130219;1270;108534;-77
2022/06/29 07:45:48;;;;;;;13.80;9.40;;;;;;;23.11;77.46;100373.77;130207;1268;108835;-77
2022/06/29 07:48:53;;;;;;;9.60;8.60;;;;;;;22.93;77.94;100375.90;130210;1269;108706;-77
2022/06/29 07:51:59;;;;;;;9.20;8.20;;;;;;;23.00;77.95;100375.08;130213;1270;109604;-77
2022/06/29 07:55:05;;;;;;;10.10;9.10;;;;;;;22.99;78.11;100373.55;130271;1268;108340;-78
2022/06/29 07:58:10;;;;;;;6.90;6.20;;;;;;;23.23;77.91;100376.80;130209;1268;108628;-77
2022/06/29 08:01:15;;;;;;;8.30;7.50;;;;;;;23.62;77.91;100370.29;130221;1268;108878;-77
2022/06/29 08:04:20;;;;;;;7.70;7.00;;;;;;;23.85;76.68;100374.86;130223;1270;109162;-77
2022/06/29 08:07:26;;;;;;;10.30;7.40;;;;;;;23.74;76.52;100372.64;130264;1268;108614;-76
2022/06/29 08:10:32;;;;;;;9.80;7.80;;;;;;;23.93;77.05;100378.96;130231;1268;108725;-77
2022/06/29 08:13:38;;;;;;;10.20;9.20;;;;;;;24.18;76.07;100380.02;130282;1268;108735;-78
2022/06/29 08:16:43;;;;;;;8.80;7.90;;;;;;;24.25;75.55;100374.27;130314;1268;108610;-77
2022/06/29 08:19:48;;;;;;;12.10;10.70;;;;;;;24.41;75.34;100375.13;130282;1268;108485;-77
2022/06/29 08:22:54;;;;;;;11.00;10.00;;;;;;;24.23;74.83;100380.29;130316;1270;108024;-76
2022/06/29 08:25:59;;;;;;;11.20;9.30;;;;;;;24.08;74.92;100383.55;130218;1269;108735;-77
2022/06/29 08:29:04;;;;;;;9.10;8.20;;;;;;;23.90;75.17;100391.92;130270;1268;108562;-76
2022/06/29 08:32:10;;;;;;;11.10;10.00;;;;;;;23.81;75.00;100392.75;130134;1268;108448;-77
2022/06/29 08:35:17;;;;;;;13.00;9.70;;;;;;;23.52;74.04;100394.73;130234;1268;108756;-76
2022/06/29 08:38:22;;;;;;;13.00;10.70;;;;;;;23.24;75.24;100392.51;130182;1268;108887;-77
2022/06/29 08:41:29;;;;;;;11.00;8.70;;;;;;;23.17;75.34;100394.61;130240;1270;108129;-76
2022/06/29 08:44:36;;;;;;;10.60;9.30;;;;;;;23.12;75.47;100389.05;130291;1270;108785;-77
2022/06/29 08:47:42;;;;;;;9.10;8.10;;;;;;;23.13;75.32;100390.20;130277;1268;108767;-77
2022/06/29 08:50:53;;;;;;;11.00;9.80;;;;;;;23.23;74.99;100384.14;130218;1269;108843;-77
2022/06/29 08:53:59;;;;;;;11.60;10.50;;;;;;;23.22;74.53;100381.35;130136;1268;108679;-76
2022/06/29 08:57:06;;;;;;;12.20;10.60;;;;;;;23.22;74.46;100378.29;130244;1268;108681;-76
2022/06/29 09:00:13;;;;;;;11.90;10.70;;;;;;;23.34;74.97;100372.66;130220;1268;108795;-76
2022/06/29 09:03:18;;;;;;;10.40;9.30;;;;;;;23.57;74.19;100367.23;130252;1269;108821;-75
2022/06/29 09:06:24;;;;;;;10.80;9.60;;;;;;;23.72;73.70;100369.95;130131;1268;108809;-78
2022/06/29 09:09:29;;;;;;;11.00;9.90;;;;;;;23.82;73.58;100369.95;130192;1268;107574;-77
2022/06/29 09:12:34;;;;;;;9.50;7.60;;;;;;;24.06;73.45;100368.39;130217;1270;108766;-76
2022/06/29 09:15:41;;;;;;;10.60;9.20;;;;;;;24.48;72.37;100371.66;130280;1268;108841;-76
2022/06/29 09:18:47;;;;;;;8.80;7.90;;;;;;;24.70;72.81;100374.30;130188;1268;108556;-77
2022/06/29 09:21:54;;;;;;;11.80;10.00;;;;;;;25.21;72.18;100383.38;130361;1268;108568;-77
2022/06/29 09:24:59;;;;;;;11.90;10.50;;;;;;;25.30;70.95;100385.93;130243;1268;108727;-77
2022/06/29 09:28:18;;;;;;;11.70;10.40;;;;;;;25.05;70.35;100386.41;130219;1268;108839;-76
2022/06/29 09:31:23;;;;;;;10.20;9.20;;;;;;;24.79;70.75;100379.02;130249;1268;108749;-76
2022/06/29 09:34:29;;;;;;;10.90;9.90;;;;;;;24.91;71.30;100365.59;130203;1268;108822;-76
2022/06/29 09:37:34;;;;;;;11.20;10.10;;;;;;;25.18;70.32;100365.02;130225;1268;108838;-77
2022/06/29 09:40:59;;;;;;;10.80;9.90;;;;;;;25.31;69.78;100367.50;130218;1268;107735;-75
2022/06/29 09:44:05;;;;;;;10.50;8.70;;;;;;;25.27;69.04;100368.14;130247;1268;108879;-76
2022/06/29 09:47:15;;;;;;;8.70;7.70;;;;;;;25.42;69.95;100360.11;130230;1270;108237;-77
2022/06/29 09:50:21;;;;;;;11.10;10.00;;;;;;;25.64;68.90;100359.64;130228;1268;109664;-77
2022/06/29 09:53:36;;;;;;;11.60;10.40;;;;;;;25.51;68.01;100358.80;130248;1268;108944;-76
2022/06/29 09:56:46;;;;;;;11.00;9.80;;;;;;;25.48;68.82;100359.24;130186;1269;107786;-78
2022/06/29 10:03:18;;;;;;;10.70;9.50;;;;;;;25.16;67.83;100356.95;130267;1268;108718;-78
2022/06/29 10:06:24;;;;;;;10.50;9.10;;;;;;;25.24;67.88;100356.52;130231;1268;108025;-76
2022/06/29 10:09:30;;;;;;;10.10;8.90;;;;;;;25.26;67.60;100356.48;130165;1268;108879;-76
2022/06/29 10:16:22;;;;;;;10.30;8.60;;;;;;;25.12;68.66;100347.39;130264;1268;108843;-77
2022/06/29 10:19:43;;;;;;;9.20;8.30;;;;;;;25.46;68.20;100347.70;130208;1269;108691;-76
2022/06/29 10:22:48;;;;;;;10.00;8.90;;;;;;;25.68;67.84;100342.93;130222;1268;108787;-77
2022/06/29 10:25:53;;;;;;;10.50;9.30;;;;;;;25.65;66.38;100345.19;130182;1268;108856;-76
2022/06/29 10:29:18;;;;;;;8.50;7.60;;;;;;;25.49;66.45;100349.27;130196;1269;109010;-77
2022/06/29 10:32:24;;;;;;;10.20;8.30;;;;;;;25.67;67.77;100342.15;130230;1268;108977;-77
2022/06/29 10:35:49;;;;;;;9.40;8.50;;;;;;;26.16;66.99;100338.52;130168;1268;108938;-76
2022/06/29 10:39:13;;;;;;;9.60;8.70;;;;;;;26.39;65.66;100342.02;130172;1269;108833;-77
2022/06/29 10:46:01;;;;;;;8.70;7.90;;;;;;;26.22;66.16;100337.61;130205;1268;108823;-76
2022/06/29 10:49:23;;;;;;;8.00;7.30;;;;;;;26.33;66.32;100334.66;130152;1268;108763;-78
2022/06/29 10:52:29;;;;;;;8.30;6.90;;;;;;;26.68;66.38;100330.36;130370;1268;108653;-78
2022/06/29 10:55:38;;;;;;;8.60;7.70;;;;;;;27.00;66.02;100324.92;130313;1268;108692;-77
2022/06/29 10:58:43;;;;;;;8.00;7.20;;;;;;;27.14;65.52;100326.23;130197;1269;108842;-78
2022/06/29 11:02:09;;;;;;;8.60;7.80;;;;;;;27.27;65.06;100329.11;130298;1268;108811;-76
2022/06/29 11:05:15;;;;;;;8.20;7.40;;;;;;;27.09;63.76;100333.48;130300;1268;108709;-77
2022/06/29 11:12:04;;;;;;;8.70;7.90;;;;;;;27.10;64.73;100331.05;130206;1270;108749;-76
2022/06/29 11:18:34;;;;;;;8.80;8.00;;;;;;;27.51;63.49;100325.95;130221;1269;108816;-76
2022/06/29 11:21:40;;;;;;;9.20;8.10;;;;;;;27.21;62.98;100326.52;130268;1268;108828;-77
2022/06/29 11:24:57;;;;;;;9.40;7.00;;;;;;;26.67;63.10;100329.09;130195;1268;108666;-76
2022/06/29 11:28:02;;;;;;;13.60;7.70;;;;;;;26.62;64.45;100327.34;130070;1268;364120;-77
2022/06/29 11:31:09;;;;;;;8.50;7.40;;;;;;;26.87;63.65;100326.89;130253;1269;108686;-78
2022/06/29 11:34:15;;;;;;;11.10;7.60;;;;;;;26.86;63.17;100326.54;130212;1268;108566;-76
2022/06/29 11:37:24;;;;;;;8.00;7.20;;;;;;;26.78;63.69;100322.26;130159;1270;108893;-77
2022/06/29 11:40:35;;;;;;;8.90;8.00;;;;;;;26.96;63.68;100318.80;130198;1268;107289;-77
2022/06/29 11:43:41;;;;;;;9.70;7.90;;;;;;;27.01;62.34;100313.75;130207;1270;108764;-79
2022/06/29 11:46:47;;;;;;;8.60;7.80;;;;;;;26.88;62.90;100296.88;130128;1269;107407;-78
2022/06/29 11:49:52;;;;;;;9.00;8.20;;;;;;;26.86;62.99;100284.11;130121;1268;108676;-78
2022/06/29 11:52:57;;;;;;;9.50;8.00;;;;;;;26.65;62.80;100277.63;130167;1270;108745;-78
2022/06/29 11:56:03;;;;;;;9.70;8.00;;;;;;;26.49;62.43;100272.26;130201;1270;108776;-76
2022/06/29 11:59:08;;;;;;;9.40;7.80;;;;;;;26.42;62.72;100272.06;130171;1270;108679;-78
2022/06/29 12:02:15;;;;;;;8.90;7.80;;;;;;;26.40;63.14;100264.29;130145;1268;108948;-77
2022/06/29 12:05:20;;;;;;;8.40;7.40;;;;;;;26.40;62.82;100255.67;130183;1268;109133;-78
2022/06/29 12:08:26;;;;;;;8.00;7.20;;;;;;;26.37;62.17;100259.98;130182;1268;108697;-78
2022/06/29 12:11:31;;;;;;;7.90;7.10;;;;;;;26.27;61.05;100261.77;130291;1268;108213;-79
2022/06/29 12:14:37;;;;;;;7.30;6.70;;;;;;;26.16;61.90;100261.17;130294;1267;108616;-78
2022/06/29 12:17:43;;;;;;;8.40;7.60;;;;;;;26.26;62.11;100260.90;130185;1268;108845;-78
2022/06/29 12:20:48;;;;;;;7.80;7.10;;;;;;;26.34;61.69;100259.52;130365;1268;108868;-79
2022/06/29 12:23:53;;;;;;;8.30;7.30;;;;;;;26.51;62.17;100252.06;130209;1269;110195;-79
2022/06/29 12:26:59;;;;;;;7.40;6.70;;;;;;;26.61;61.81;100243.27;130259;1268;108695;-78
2022/06/29 12:30:05;;;;;;;8.50;7.30;;;;;;;26.63;61.92;100241.64;130231;1268;107629;-78
2022/06/29 12:33:11;;;;;;;7.20;6.50;;;;;;;26.45;61.05;100237.02;130310;1268;108945;-79
2022/06/29 12:36:16;;;;;;;7.30;6.70;;;;;;;26.32;61.86;100234.91;130312;1268;108852;-78
2022/06/29 12:39:21;;;;;;;7.60;6.90;;;;;;;26.29;61.47;100227.73;130290;1268;108252;-75
2022/06/29 12:42:26;;;;;;;8.40;6.90;;;;;;;26.19;61.30;100229.38;130210;1268;108767;-79
2022/06/29 12:45:32;;;;;;;7.90;6.60;;;;;;;26.20;61.82;100218.70;130237;1268;107724;-78
2022/06/29 12:48:38;;;;;;;7.40;6.70;;;;;;;26.35;61.81;100216.67;130236;1268;109738;-78
2022/06/29 12:51:43;;;;;;;7.00;6.30;;;;;;;26.46;61.21;100210.09;130225;1268;108688;-76
2022/06/29 12:54:48;;;;;;;6.60;6.10;;;;;;;26.54;60.98;100203.55;130240;1268;108697;-75
2022/06/29 12:57:54;;;;;;;7.10;6.40;;;;;;;26.58;60.62;100207.91;130215;1268;108857;-79
2022/06/29 13:00:59;;;;;;;7.30;6.60;;;;;;;26.61;61.01;100211.84;130336;1268;108883;-78
2022/06/29 13:04:05;;;;;;;7.30;6.40;;;;;;;26.70;60.58;100203.66;130244;1268;108684;-78
2022/06/29 13:07:10;;;;;;;7.00;6.40;;;;;;;26.72;60.86;100196.39;130299;1268;108848;-76
2022/06/29 13:10:16;;;;;;;7.00;6.40;;;;;;;26.79;60.73;100197.00;130253;1268;108996;-77
2022/06/29 13:13:21;;;;;;;7.50;6.80;;;;;;;26.84;60.68;100194.30;130267;1268;108748;-78
2022/06/29 13:16:26;;;;;;;7.60;6.80;;;;;;;26.78;59.62;100195.08;130321;1268;108731;-79
2022/06/29 13:19:31;;;;;;;8.40;6.50;;;;;;;26.72;60.57;100189.95;130418;1268;108517;-75
2022/06/29 13:22:36;;;;;;;7.50;6.30;;;;;;;26.71;59.72;100184.67;130241;1268;108933;-78
2022/06/29 13:25:42;;;;;;;6.90;6.30;;;;;;;26.64;60.49;100184.35;130205;1268;108132;-77
2022/06/29 13:28:48;;;;;;;6.30;5.80;;;;;;;26.71;60.40;100181.23;130213;1268;108545;-77
2022/06/29 13:31:54;;;;;;;6.40;5.80;;;;;;;26.58;59.57;100186.56;130240;1268;108601;-77
2022/06/29 13:34:59;;;;;;;6.70;6.10;;;;;;;26.36;59.50;100192.88;130231;1267;108990;-77
2022/06/29 13:38:05;;;;;;;6.50;6.00;;;;;;;26.36;59.99;100188.08;130297;1268;108645;-77
2022/06/29 13:41:10;;;;;;;6.10;5.60;;;;;;;26.47;59.48;100189.10;130219;1268;106887;-77
2022/06/29 13:44:16;;;;;;;6.00;5.50;;;;;;;26.59;59.93;100187.41;130216;1268;108758;-78
2022/06/29 13:47:24;;;;;;;6.10;5.50;;;;;;;26.77;59.91;100180.77;130229;1268;108604;-77
2022/06/29 13:50:29;;;;;;;7.20;5.80;;;;;;;26.95;60.04;100182.27;130328;1268;108782;-77
2022/06/29 13:53:35;;;;;;;6.50;5.90;;;;;;;27.04;59.53;100183.10;130186;1268;109486;-77
2022/06/29 13:56:40;;;;;;;6.30;5.60;;;;;;;27.06;59.45;100182.45;130184;1268;108908;-77
2022/06/29 13:59:45;;;;;;;6.70;5.90;;;;;;;26.99;58.69;100188.48;130203;1268;108840;-79
2022/06/29 14:02:50;;;;;;;7.00;6.00;;;;;;;26.82;58.29;100188.21;130266;1268;108847;-76
2022/06/29 14:05:56;;;;;;;7.20;6.60;;;;;;;26.74;58.48;100195.86;130209;1268;108822;-76
2022/06/29 14:09:01;;;;;;;6.70;6.00;;;;;;;26.77;59.19;100195.29;130265;1268;108090;-76
2022/06/29 14:12:07;;;;;;;6.80;6.20;;;;;;;26.91;59.37;100201.14;130258;1268;108737;-76
2022/06/29 14:15:14;;;;;;;8.20;5.90;;;;;;;27.05;58.85;100199.15;130272;1268;108651;-77
2022/06/29 14:18:19;;;;;;;6.50;5.90;;;;;;;27.01;58.21;100202.80;130374;1268;108635;-77
2022/06/29 14:21:25;;;;;;;6.50;5.90;;;;;;;26.84;58.31;100201.91;130472;1268;108864;-77
2022/06/29 14:24:30;;;;;;;7.30;6.10;;;;;;;26.70;58.85;100200.10;130391;1268;108778;-75